Tuesday, April 24, 2018, 9:06 PM EDT
Back to Local

KLCI, Laconia, Laconia Municipal Airport

Location: Laconia, NH, United States Lat: 43.567
Local Time: 9:06 PM EDT ( 1:06 GMT) Lon: -71.417
Time Zone: US/Eastern Elev: 544 ft

Show me the last for .
Show Decoded

2018-04-24 19:56 METAR KLCI 242356Z AUTO 21008KT 10SM CLR 17/M06 A3017 RMK AO2 SLP237 T01721056
                 10222 20172 55004 =
2018-04-24 18:56 METAR KLCI 242256Z AUTO 22012KT 10SM CLR 19/M09 A3017 RMK AO2 SLP236 T01891089 =
2018-04-24 17:56 METAR KLCI 242156Z AUTO 20009KT 10SM CLR 21/M09 A3017 RMK AO2 SLP238 T02061089 =
2018-04-24 16:56 METAR KLCI 242056Z AUTO 22012G21KT 10SM CLR 21/M08 A3019 RMK AO2 SLP242
                 T02111083 56016 =
2018-04-24 15:56 METAR KLCI 241956Z AUTO 22014G20KT 10SM CLR 22/M06 A3019 RMK AO2 SLP241
                 T02221061 =
2018-04-24 14:56 METAR KLCI 241856Z AUTO 24014KT 10SM CLR 22/M07 A3021 RMK AO2 SLP248 T02171067 =
2018-04-24 13:56 METAR KLCI 241756Z AUTO 24013G16KT 10SM CLR 21/M04 A3023 RMK AO2 SLP256 6////
                 T02111039 10211 20072 58032 =
2018-04-24 12:56 METAR KLCI 241656Z AUTO 23008G18KT 180V280 10SM CLR 19/M03 A3026 RMK AO2 SLP266
                 T01941033 =
2018-04-24 11:56 METAR KLCI 241556Z AUTO 25011KT 10SM CLR 18/M03 A3030 RMK AO2 SLP280 T01831033 =
2018-04-24 10:56 METAR KLCI 241456Z AUTO 23007KT 10SM CLR 17/M02 A3033 RMK AO2 SLP289 T01671022
                 58014 =
2018-04-24 09:56 METAR KLCI 241356Z AUTO 25007KT 10SM CLR 14/M04 A3035 RMK AO2 SLP298 T01441039 =
2018-04-24 08:56 METAR KLCI 241256Z AUTO 25004KT 10SM CLR 11/M03 A3036 RMK AO2 SLP302 T01111033 =
2018-04-24 07:56 METAR KLCI 241156Z AUTO 26006KT 10SM CLR 07/M03 A3037 RMK AO2 SLP305 T00721028
                 10072 20017 53005 =
2018-04-24 06:56 METAR KLCI 241056Z AUTO 26004KT 10SM CLR 03/M02 A3037 RMK AO2 SLP305 T00331017 =
2018-04-24 05:56 METAR KLCI 240956Z AUTO 24005KT 10SM CLR 02/M03 A3036 RMK AO2 SLP301 T00221028
                 FZRANO =
2018-04-24 04:56 METAR KLCI 240856Z AUTO 24006KT 10SM CLR 03/M02 A3036 RMK AO2 SLP301 T00331017
                 58001 =
2018-04-24 03:56 METAR KLCI 240756Z AUTO 26004KT 10SM CLR 06/M04 A3036 RMK AO2 SLP301 T00561039 =
2018-04-24 02:56 METAR KLCI 240656Z AUTO 26004KT 10SM CLR 06/M04 A3036 RMK AO2 SLP302 T00561039 =
2018-04-24 01:56 METAR KLCI 240556Z AUTO 29003KT 10SM CLR 07/M03 A3036 RMK AO2 SLP301 T00671033
                 10150 20067 58003 =
2018-04-24 00:56 METAR KLCI 240456Z AUTO 21006KT 10SM CLR 09/M05 A3037 RMK AO2 SLP304 T00941050 =
2018-04-23 23:56 METAR KLCI 240356Z AUTO 20008KT 10SM CLR 10/M05 A3037 RMK AO2 SLP302 T01001050
                 401941022 =
2018-04-23 22:56 METAR KLCI 240256Z AUTO 22007KT 10SM CLR 11/M06 A3037 RMK AO2 SLP304 T01061056
                 50006 =
2018-04-23 21:56 METAR KLCI 240156Z AUTO 21009KT 10SM CLR 12/M06 A3038 RMK AO2 SLP308 T01171061 =

Support USWX by starting your Amazon purchase here.